createdAt,value
2017-12-03T00:00:22.934Z,63.50
2017-12-03T00:02:50.135Z,63.20
2017-12-03T00:05:16.534Z,63.20
2017-12-03T00:07:42.952Z,63.00
2017-12-03T00:10:10.098Z,64.00
2017-12-03T00:12:37.254Z,64.00
2017-12-03T00:15:04.401Z,64.70
2017-12-03T00:17:31.618Z,64.10
2017-12-03T00:19:58.020Z,64.10
2017-12-03T00:22:24.552Z,63.90
2017-12-03T00:24:50.964Z,63.80
2017-12-03T00:27:17.415Z,64.50
2017-12-03T00:29:43.835Z,64.50
2017-12-03T00:32:10.326Z,63.90
2017-12-03T00:34:37.503Z,64.10
2017-12-03T00:37:03.956Z,64.10
2017-12-03T00:39:30.512Z,63.50
2017-12-03T00:41:56.960Z,63.50
2017-12-03T00:44:24.159Z,64.20
2017-12-03T00:46:50.539Z,64.90
2017-12-03T00:49:16.935Z,63.60
2017-12-03T00:51:43.361Z,63.90
2017-12-03T00:54:09.751Z,62.70
2017-12-03T00:56:36.165Z,63.30
2017-12-03T00:59:02.569Z,62.50
2017-12-03T01:01:34.627Z,63.40
2017-12-03T01:04:01.031Z,63.40
2017-12-03T01:06:27.412Z,63.70
2017-12-03T01:08:53.852Z,64.50
2017-12-03T01:11:27.880Z,64.20
2017-12-03T01:13:54.290Z,64.50
2017-12-03T01:16:20.670Z,64.00
2017-12-03T01:18:47.138Z,63.70
2017-12-03T01:21:13.512Z,62.40
2017-12-03T01:23:40.832Z,62.90
2017-12-03T01:26:07.264Z,62.10
2017-12-03T01:28:33.668Z,61.50
2017-12-03T01:31:00.076Z,62.30
2017-12-03T01:33:27.559Z,62.80
2017-12-03T01:35:53.971Z,62.70
2017-12-03T01:38:21.768Z,61.90
2017-12-03T01:40:48.168Z,61.90
2017-12-03T01:43:14.548Z,61.80
2017-12-03T01:45:40.943Z,61.90
2017-12-03T01:48:08.398Z,61.00
2017-12-03T01:50:34.802Z,61.80
2017-12-03T01:53:01.964Z,61.00
2017-12-03T01:55:29.094Z,62.00
2017-12-03T01:57:55.498Z,62.00
2017-12-03T02:00:22.001Z,62.80
2017-12-03T02:02:48.395Z,63.60
2017-12-03T02:05:16.364Z,63.00
2017-12-03T02:07:42.873Z,63.00
2017-12-03T02:10:09.313Z,62.00
2017-12-03T02:12:35.683Z,62.10
2017-12-03T02:15:03.107Z,62.50
2017-12-03T02:17:29.525Z,61.80
2017-12-03T02:19:55.955Z,63.10
2017-12-03T02:22:22.364Z,62.80
2017-12-03T02:24:48.854Z,62.90
2017-12-03T02:27:16.002Z,63.10
2017-12-03T02:29:43.120Z,62.60
2017-12-03T02:32:09.540Z,62.60
2017-12-03T02:34:35.959Z,62.60
2017-12-03T02:37:02.414Z,62.70
2017-12-03T02:39:28.797Z,62.10
2017-12-03T02:41:56.190Z,62.60
2017-12-03T02:44:22.567Z,63.20
2017-12-03T02:46:49.798Z,62.70
2017-12-03T02:49:16.241Z,62.60
2017-12-03T02:51:42.638Z,62.20
2017-12-03T02:54:09.067Z,65.90
2017-12-03T02:56:35.436Z,68.20
2017-12-03T02:59:01.855Z,70.40
2017-12-03T03:01:28.266Z,71.40
2017-12-03T03:03:54.728Z,71.60
2017-12-03T03:06:21.209Z,72.10
2017-12-03T03:08:48.690Z,72.80
2017-12-03T03:11:15.106Z,71.70
2017-12-03T03:13:41.568Z,70.60
2017-12-03T03:16:07.967Z,70.80
2017-12-03T03:18:34.343Z,70.30
2017-12-03T03:21:00.731Z,70.00
2017-12-03T03:23:27.132Z,69.90
2017-12-03T03:25:53.547Z,68.00
2017-12-03T03:28:19.931Z,66.70
2017-12-03T03:30:47.099Z,65.70
2017-12-03T03:33:13.484Z,65.70
2017-12-03T03:35:39.900Z,65.40
2017-12-03T03:38:07.106Z,65.20
2017-12-03T03:40:33.871Z,65.20
2017-12-03T03:43:00.263Z,65.70
2017-12-03T03:45:26.791Z,66.70
2017-12-03T03:47:53.200Z,66.40
2017-12-03T03:50:19.664Z,66.00
2017-12-03T03:52:46.100Z,65.40
2017-12-03T03:55:12.488Z,66.40
2017-12-03T03:57:39.629Z,66.20
2017-12-03T04:00:06.794Z,67.00
2017-12-03T04:02:33.220Z,67.00
2017-12-03T04:05:00.407Z,66.00
2017-12-03T04:07:26.793Z,66.00
2017-12-03T04:09:53.943Z,67.40
2017-12-03T04:12:21.156Z,66.90
2017-12-03T04:17:21.702Z,65.00
2017-12-03T04:19:48.147Z,66.00
2017-12-03T04:22:14.607Z,65.90
2017-12-03T04:24:41.763Z,65.40
2017-12-03T04:27:08.983Z,65.90
2017-12-03T04:29:35.420Z,65.90
2017-12-03T04:32:02.647Z,65.20
2017-12-03T04:34:29.068Z,65.30
2017-12-03T04:36:55.575Z,64.30
2017-12-03T04:39:23.027Z,61.90
2017-12-03T04:41:49.463Z,62.30
2017-12-03T04:44:15.966Z,59.80
2017-12-03T04:46:42.433Z,61.80
2017-12-03T04:49:08.938Z,59.90
2017-12-03T04:51:35.348Z,59.90
2017-12-03T04:54:01.809Z,59.80
2017-12-03T04:56:30.110Z,59.00
2017-12-03T04:58:56.537Z,58.90
2017-12-03T05:01:23.003Z,58.90
2017-12-03T05:03:49.418Z,59.50
2017-12-03T05:06:15.936Z,58.50
2017-12-03T05:08:42.472Z,58.70
2017-12-03T05:11:08.900Z,58.40
2017-12-03T05:13:35.404Z,58.20
2017-12-03T05:16:01.823Z,58.00
2017-12-03T05:18:28.294Z,57.90
2017-12-03T05:20:55.480Z,58.00
2017-12-03T05:23:22.050Z,58.00
2017-12-03T05:25:48.485Z,57.50
2017-12-03T05:28:14.939Z,57.70
2017-12-03T05:30:42.128Z,57.70
2017-12-03T05:33:08.564Z,57.70
2017-12-03T05:35:35.016Z,57.30
2017-12-03T05:38:01.439Z,57.10
2017-12-03T05:40:28.913Z,57.90
2017-12-03T05:42:56.379Z,57.40
2017-12-03T05:45:23.879Z,57.50
2017-12-03T05:47:50.400Z,56.70
2017-12-03T05:50:16.866Z,56.40
2017-12-03T05:52:43.313Z,56.10
2017-12-03T05:55:09.761Z,56.30
2017-12-03T05:57:36.251Z,56.80
2017-12-03T06:00:02.725Z,56.60
2017-12-03T06:02:29.145Z,56.60
2017-12-03T06:04:55.587Z,54.70
2017-12-03T06:07:22.015Z,55.30
2017-12-03T06:09:48.478Z,55.10
2017-12-03T06:12:14.923Z,55.30
2017-12-03T06:14:42.128Z,54.40
2017-12-03T06:17:08.571Z,54.40
2017-12-03T06:19:35.068Z,54.30
2017-12-03T06:22:01.498Z,53.60
2017-12-03T06:24:28.003Z,54.20
2017-12-03T06:26:55.149Z,54.60
2017-12-03T06:29:22.351Z,53.50
2017-12-03T06:31:48.808Z,53.40
2017-12-03T06:34:16.283Z,53.30
2017-12-03T06:36:43.448Z,53.80
2017-12-03T06:39:10.616Z,54.20
2017-12-03T06:41:37.052Z,54.20
2017-12-03T06:44:03.622Z,54.20
2017-12-03T06:46:30.407Z,54.10
2017-12-03T06:48:58.591Z,55.30
2017-12-03T06:51:25.103Z,55.30
2017-12-03T06:53:52.271Z,54.60
2017-12-03T06:56:18.708Z,54.50
2017-12-03T06:58:45.209Z,54.70
2017-12-03T07:01:11.653Z,54.80
2017-12-03T07:03:38.794Z,54.30
2017-12-03T07:06:05.955Z,54.70
2017-12-03T07:08:33.159Z,54.70
2017-12-03T07:10:59.620Z,54.70
2017-12-03T07:13:26.079Z,55.00
2017-12-03T07:15:53.235Z,55.70
2017-12-03T07:18:19.685Z,55.70
2017-12-03T07:20:46.183Z,55.70
2017-12-03T07:23:13.370Z,56.50
2017-12-03T07:25:39.825Z,56.50
2017-12-03T07:28:06.400Z,56.90
2017-12-03T07:30:33.643Z,57.80
2017-12-03T07:33:00.902Z,58.60
2017-12-03T07:35:27.451Z,58.60
2017-12-03T07:37:53.932Z,58.20
2017-12-03T07:40:20.600Z,58.80
2017-12-03T07:42:47.912Z,58.60
2017-12-03T07:45:14.356Z,58.60
2017-12-03T07:47:42.812Z,57.90
2017-12-03T07:50:09.219Z,58.70
2017-12-03T07:52:35.707Z,58.50
2017-12-03T07:55:02.297Z,57.90
2017-12-03T07:57:28.778Z,57.60
2017-12-03T07:59:55.216Z,57.50
2017-12-03T08:02:21.787Z,57.40
2017-12-03T08:04:48.228Z,57.40
2017-12-03T08:07:15.419Z,57.70
2017-12-03T08:09:41.840Z,57.70
2017-12-03T08:12:08.268Z,56.90
2017-12-03T08:14:34.756Z,56.70
2017-12-03T08:17:02.027Z,56.70
2017-12-03T08:19:28.504Z,56.70
2017-12-03T08:21:54.924Z,57.00
2017-12-03T08:24:21.403Z,56.60
2017-12-03T08:26:48.635Z,57.40
2017-12-03T08:29:15.139Z,57.40
2017-12-03T08:31:41.567Z,57.10
2017-12-03T08:34:08.115Z,57.00
2017-12-03T08:36:34.540Z,56.80
2017-12-03T08:39:02.027Z,56.30
2017-12-03T08:41:28.570Z,55.00
2017-12-03T08:43:55.153Z,55.10
2017-12-03T08:46:21.631Z,54.70
2017-12-03T08:48:48.127Z,54.50
2017-12-03T08:51:14.564Z,54.20
2017-12-03T08:53:41.168Z,55.40
2017-12-03T08:56:08.332Z,54.30
2017-12-03T08:58:34.891Z,54.30
2017-12-03T09:01:01.323Z,54.10
2017-12-03T09:03:27.760Z,54.60
2017-12-03T09:05:54.195Z,53.70
2017-12-03T09:08:20.721Z,52.90
2017-12-03T09:10:47.236Z,52.80
2017-12-03T09:13:13.720Z,52.10
2017-12-03T09:15:40.225Z,51.90
2017-12-03T09:18:06.767Z,52.40
2017-12-03T09:20:33.227Z,52.50
2017-12-03T09:22:59.744Z,52.40
2017-12-03T09:25:26.175Z,52.70
2017-12-03T09:27:52.725Z,53.70
2017-12-03T09:30:20.779Z,53.30
2017-12-03T09:32:47.247Z,53.00
2017-12-03T09:35:14.478Z,52.40
2017-12-03T09:37:40.988Z,52.40
2017-12-03T09:40:07.468Z,51.80
2017-12-03T09:42:35.684Z,50.20
2017-12-03T09:45:02.154Z,50.20
2017-12-03T09:47:28.615Z,49.50
2017-12-03T09:49:56.021Z,48.70
2017-12-03T09:52:22.528Z,48.70
2017-12-03T09:54:48.970Z,48.30
2017-12-03T09:57:16.476Z,48.30
2017-12-03T09:59:43.670Z,47.60
2017-12-03T10:02:10.119Z,47.60
2017-12-03T10:04:36.595Z,47.10
2017-12-03T10:07:03.074Z,47.00
2017-12-03T10:09:36.558Z,47.70
2017-12-03T10:12:03.036Z,47.50
2017-12-03T10:14:29.434Z,47.80
2017-12-03T10:16:55.896Z,48.10
2017-12-03T10:21:59.555Z,49.70
2017-12-03T10:24:27.886Z,49.50
2017-12-03T10:26:55.459Z,49.60
2017-12-03T10:29:23.020Z,48.70
2017-12-03T10:31:50.608Z,48.40
2017-12-03T10:34:19.002Z,47.30
2017-12-03T10:36:47.397Z,47.40
2017-12-03T10:39:14.943Z,47.40
2017-12-03T10:41:42.508Z,48.50
2017-12-03T10:44:10.063Z,45.90
2017-12-03T10:46:37.671Z,47.60
2017-12-03T10:49:05.240Z,48.40
2017-12-03T10:51:32.835Z,47.90
2017-12-03T10:54:00.405Z,48.20
2017-12-03T10:56:27.983Z,47.50
2017-12-03T10:58:55.799Z,48.50
2017-12-03T11:01:23.378Z,49.20
2017-12-03T11:03:51.872Z,49.30
2017-12-03T11:06:19.447Z,49.00
2017-12-03T11:08:47.030Z,49.30
2017-12-03T11:11:14.607Z,48.40
2017-12-03T11:13:43.133Z,49.50
2017-12-03T11:16:10.709Z,48.10
2017-12-03T11:18:38.264Z,48.20
2017-12-03T11:21:05.843Z,49.10
2017-12-03T11:23:33.421Z,47.80
2017-12-03T11:26:00.996Z,46.90
2017-12-03T11:28:29.319Z,46.80
2017-12-03T11:30:56.887Z,46.80
2017-12-03T11:35:58.460Z,46.40
2017-12-03T11:38:26.008Z,46.40
2017-12-03T11:40:53.626Z,46.00
2017-12-03T11:43:21.163Z,45.60
2017-12-03T11:45:48.750Z,45.90
2017-12-03T11:48:17.066Z,44.80
2017-12-03T11:50:44.631Z,44.70
2017-12-03T11:53:12.174Z,45.20
2017-12-03T11:55:39.765Z,43.80
2017-12-03T11:58:07.317Z,43.50
2017-12-03T12:00:34.910Z,43.70
2017-12-03T12:03:03.236Z,45.30
2017-12-03T12:05:31.587Z,44.30
2017-12-03T12:07:59.143Z,44.20
2017-12-03T12:10:26.724Z,44.80
2017-12-03T12:12:54.284Z,44.80
2017-12-03T12:15:21.890Z,44.40
2017-12-03T12:17:49.467Z,44.10
2017-12-03T12:20:17.779Z,43.80
2017-12-03T12:22:45.371Z,43.80
2017-12-03T12:25:12.927Z,42.80
2017-12-03T12:27:40.488Z,44.50
2017-12-03T12:30:08.027Z,45.00
2017-12-03T12:32:35.655Z,44.90
2017-12-03T12:35:03.241Z,45.30
2017-12-03T12:37:30.816Z,45.40
2017-12-03T12:39:58.363Z,44.40
2017-12-03T12:42:26.011Z,45.00
2017-12-03T12:44:53.563Z,44.00
2017-12-03T12:47:22.128Z,44.80
2017-12-03T12:49:50.449Z,45.20
2017-12-03T12:52:20.052Z,45.20
2017-12-03T12:54:47.600Z,46.00
2017-12-03T12:57:16.180Z,45.90
2017-12-03T12:59:43.712Z,46.20
2017-12-03T13:02:13.992Z,46.90
2017-12-03T13:04:41.629Z,46.80
2017-12-03T13:07:09.200Z,47.70
2017-12-03T13:09:36.771Z,47.40
2017-12-03T13:12:04.339Z,47.20
2017-12-03T13:14:31.944Z,47.90
2017-12-03T13:17:00.495Z,47.70
2017-12-03T13:19:28.783Z,47.10
2017-12-03T13:21:57.127Z,47.40
2017-12-03T13:24:24.754Z,47.40
2017-12-03T13:26:52.324Z,47.50
2017-12-03T13:29:20.871Z,47.50
2017-12-03T13:31:48.443Z,47.80
2017-12-03T13:34:15.983Z,48.40
2017-12-03T13:36:44.319Z,50.00
2017-12-03T13:39:11.867Z,50.00
2017-12-03T13:41:39.507Z,50.00
2017-12-03T13:44:07.043Z,51.50
2017-12-03T13:46:34.621Z,50.60
2017-12-03T13:49:03.172Z,50.70
2017-12-03T13:51:31.508Z,50.40
2017-12-03T13:53:59.104Z,50.40
2017-12-03T13:56:27.455Z,51.20
2017-12-03T13:58:55.963Z,51.20
2017-12-03T14:01:24.303Z,50.90
2017-12-03T14:03:51.871Z,50.90
2017-12-03T14:06:19.448Z,51.00
2017-12-03T14:08:47.031Z,51.90
2017-12-03T14:11:16.548Z,52.40
2017-12-03T14:13:44.113Z,51.60
2017-12-03T14:16:12.660Z,51.90
2017-12-03T14:18:40.972Z,53.50
2017-12-03T14:21:08.562Z,53.40
2017-12-03T14:23:36.124Z,52.80
2017-12-03T14:26:03.743Z,53.10
2017-12-03T14:28:31.286Z,52.60
2017-12-03T14:30:59.615Z,53.60
2017-12-03T14:33:27.168Z,53.60
2017-12-03T14:35:56.021Z,53.90
2017-12-03T14:38:23.562Z,54.20
2017-12-03T14:40:51.895Z,54.80
2017-12-03T14:43:19.460Z,54.80
2017-12-03T14:45:47.030Z,54.50
2017-12-03T14:48:14.586Z,54.40
2017-12-03T14:50:42.177Z,55.20
2017-12-03T14:53:10.509Z,55.90
2017-12-03T14:55:38.096Z,55.90
2017-12-03T14:58:05.647Z,55.00
2017-12-03T15:00:33.233Z,55.20
2017-12-03T15:03:02.515Z,54.60
2017-12-03T15:05:30.083Z,54.60
2017-12-03T15:07:57.680Z,54.70
2017-12-03T15:12:59.068Z,55.90
2017-12-03T15:15:26.636Z,56.10
2017-12-03T15:17:54.219Z,55.40
2017-12-03T15:20:21.779Z,55.40
2017-12-03T15:22:50.135Z,55.40
2017-12-03T15:25:17.693Z,55.40
2017-12-03T15:27:45.281Z,55.70
2017-12-03T15:30:13.617Z,58.10
2017-12-03T15:32:41.194Z,58.00
2017-12-03T15:35:08.751Z,56.60
2017-12-03T15:37:36.468Z,56.00
2017-12-03T15:40:04.007Z,55.80
2017-12-03T15:42:32.380Z,55.40
2017-12-03T15:45:00.695Z,55.70
2017-12-03T15:47:28.288Z,55.70
2017-12-03T15:49:56.801Z,56.10
2017-12-03T15:52:25.173Z,56.30
2017-12-03T15:54:53.509Z,56.00
2017-12-03T15:57:21.086Z,56.00
2017-12-03T15:59:48.668Z,55.80
2017-12-03T16:02:17.012Z,56.10
2017-12-03T16:04:45.366Z,57.20
2017-12-03T16:07:13.910Z,57.20
2017-12-03T16:09:42.219Z,59.30
2017-12-03T16:12:10.838Z,59.20
2017-12-03T16:14:38.395Z,59.50
2017-12-03T16:17:05.951Z,60.20
2017-12-03T16:19:33.508Z,60.00
2017-12-03T16:22:01.085Z,58.40
2017-12-03T16:24:28.635Z,59.00
2017-12-03T16:26:56.228Z,59.10
2017-12-03T16:29:23.776Z,59.40
2017-12-03T16:31:52.201Z,60.00
2017-12-03T16:34:19.770Z,60.00
2017-12-03T16:36:47.339Z,60.20
2017-12-03T16:39:14.919Z,60.00
2017-12-03T16:41:43.424Z,60.10
2017-12-03T16:44:10.993Z,61.10
2017-12-03T16:46:39.543Z,64.00
2017-12-03T16:49:07.087Z,65.80
2017-12-03T16:51:35.623Z,66.10
2017-12-03T16:54:04.735Z,66.70
2017-12-03T16:56:33.280Z,67.80
2017-12-03T16:59:01.593Z,68.60
2017-12-03T17:01:29.167Z,68.50
2017-12-03T17:03:56.760Z,68.40
2017-12-03T17:06:25.076Z,69.60
2017-12-03T17:08:52.645Z,69.60
2017-12-03T17:11:21.143Z,69.40
2017-12-03T17:13:48.699Z,70.00
2017-12-03T17:16:17.186Z,71.10
2017-12-03T17:18:44.788Z,72.50
2017-12-03T17:21:13.112Z,74.60
2017-12-03T17:23:40.708Z,74.60
2017-12-03T17:26:08.290Z,73.80
2017-12-03T17:28:36.899Z,74.90
2017-12-03T17:31:04.465Z,75.50
2017-12-03T17:33:32.010Z,74.40
2017-12-03T17:35:59.584Z,74.10
2017-12-03T17:38:27.131Z,74.70
2017-12-03T17:40:54.698Z,75.60
2017-12-03T17:43:22.245Z,75.60
2017-12-03T17:45:49.817Z,75.60
2017-12-03T17:50:52.187Z,75.10
2017-12-03T17:53:19.821Z,75.10
2017-12-03T17:55:48.156Z,75.20
2017-12-03T17:58:15.736Z,75.10
2017-12-03T18:00:43.297Z,75.60
2017-12-03T18:03:10.899Z,75.00
2017-12-03T18:05:38.443Z,74.90
2017-12-03T18:08:06.055Z,75.20
2017-12-03T18:10:33.615Z,75.70
2017-12-03T18:13:01.191Z,76.20
2017-12-03T18:15:28.764Z,75.60
2017-12-03T18:17:57.085Z,74.80
2017-12-03T18:20:24.659Z,74.80
2017-12-03T18:22:52.204Z,75.30
2017-12-03T18:25:21.759Z,76.20
2017-12-03T18:27:49.332Z,76.00
2017-12-03T18:30:17.699Z,76.70
2017-12-03T18:34:04.380Z,76.10
2017-12-03T18:36:32.004Z,76.00
2017-12-03T18:38:59.631Z,76.30
2017-12-03T18:41:27.969Z,76.50
2017-12-03T18:43:55.578Z,76.40
2017-12-03T18:46:24.060Z,76.50
2017-12-03T18:48:52.407Z,76.80
2017-12-03T18:51:19.948Z,76.70
2017-12-03T18:53:47.512Z,76.20
2017-12-03T18:56:15.058Z,76.60
2017-12-03T18:58:42.591Z,77.00
2017-12-03T19:01:10.939Z,78.10
2017-12-03T19:03:39.279Z,77.90
2017-12-03T19:06:06.851Z,77.80
2017-12-03T19:08:34.401Z,77.30
2017-12-03T19:11:01.997Z,76.90
2017-12-03T19:13:30.505Z,76.60
2017-12-03T19:15:58.075Z,76.50
2017-12-03T19:18:25.682Z,76.80
2017-12-03T19:20:54.031Z,77.60
2017-12-03T19:23:21.723Z,77.50
2017-12-03T19:25:49.287Z,77.50
2017-12-03T19:28:16.951Z,77.20
2017-12-03T19:30:46.456Z,76.80
2017-12-03T19:33:14.775Z,76.80
2017-12-03T19:35:42.424Z,76.70
2017-12-03T19:38:09.993Z,76.90
2017-12-03T19:40:37.584Z,77.10
2017-12-03T19:43:05.152Z,76.50
2017-12-03T19:45:32.731Z,76.10
2017-12-03T19:48:01.035Z,76.00
2017-12-03T19:50:29.852Z,75.90
2017-12-03T19:52:58.431Z,76.40
2017-12-03T19:55:26.007Z,76.70
2017-12-03T19:57:53.555Z,76.30
2017-12-03T20:00:22.079Z,75.70
2017-12-03T20:02:50.400Z,76.80
2017-12-03T20:05:18.071Z,76.70
2017-12-03T20:07:45.765Z,76.60
2017-12-03T20:10:14.223Z,76.30
2017-12-03T20:12:41.904Z,76.30
2017-12-03T20:15:10.651Z,76.70
2017-12-03T20:17:38.457Z,76.30
2017-12-03T20:20:06.083Z,75.50
2017-12-03T20:22:33.636Z,76.10
2017-12-03T20:25:02.022Z,75.60
2017-12-03T20:27:29.636Z,75.60
2017-12-03T20:29:58.008Z,74.50
2017-12-03T20:32:26.347Z,74.60
2017-12-03T20:34:54.937Z,74.60
2017-12-03T20:37:22.508Z,73.90
2017-12-03T20:39:50.233Z,74.40
2017-12-03T20:42:18.771Z,75.60
2017-12-03T20:44:47.095Z,77.70
2017-12-03T20:47:14.714Z,77.80
2017-12-03T20:49:43.128Z,79.30
2017-12-03T20:52:10.721Z,79.30
2017-12-03T20:54:38.299Z,79.40
2017-12-03T20:57:05.855Z,80.10
2017-12-03T20:59:34.196Z,79.80
2017-12-03T21:02:01.768Z,79.70
2017-12-03T21:04:29.338Z,80.60
2017-12-03T21:06:58.897Z,80.50
2017-12-03T21:09:26.479Z,80.00
2017-12-03T21:11:56.017Z,80.00
2017-12-03T21:14:23.571Z,79.10
2017-12-03T21:16:51.156Z,79.80
2017-12-03T21:19:19.512Z,80.00
2017-12-03T21:21:47.147Z,79.80
2017-12-03T21:24:15.723Z,80.50
2017-12-03T21:26:43.320Z,79.50
2017-12-03T21:29:10.887Z,80.70
2017-12-03T21:31:39.196Z,81.90
2017-12-03T21:34:06.861Z,81.90
2017-12-03T21:36:34.386Z,81.90
2017-12-03T21:39:02.727Z,80.10
2017-12-03T21:41:30.282Z,80.10
2017-12-03T21:43:57.911Z,79.80
2017-12-03T21:46:25.530Z,81.30
2017-12-03T21:48:53.124Z,80.10
2017-12-03T21:51:20.760Z,79.90
2017-12-03T21:53:49.115Z,79.40
2017-12-03T21:56:17.704Z,79.40
2017-12-03T21:58:46.179Z,79.10
2017-12-03T22:01:13.747Z,79.10
2017-12-03T22:03:43.256Z,79.30
2017-12-03T22:06:10.800Z,79.30
2017-12-03T22:08:38.386Z,78.80
2017-12-03T22:11:06.700Z,79.10
2017-12-03T22:13:34.276Z,79.00
2017-12-03T22:16:02.801Z,79.20
2017-12-03T22:18:32.104Z,78.90
2017-12-03T22:21:00.554Z,79.30
2017-12-03T22:23:29.268Z,78.60
2017-12-03T22:25:58.728Z,79.20
2017-12-03T22:28:26.547Z,78.60
2017-12-03T22:30:56.824Z,78.20
2017-12-03T22:33:24.360Z,78.10
2017-12-03T22:35:51.936Z,78.30
2017-12-03T22:38:19.469Z,78.10
2017-12-03T22:40:48.013Z,78.60
2017-12-03T22:43:16.327Z,78.40
2017-12-03T22:45:43.859Z,78.40
2017-12-03T22:48:12.191Z,78.00
2017-12-03T22:50:39.727Z,78.00
2017-12-03T22:53:07.832Z,78.90
2017-12-03T22:55:35.392Z,78.80
2017-12-03T22:58:02.988Z,78.70
2017-12-03T23:00:34.440Z,78.80
2017-12-03T23:03:02.428Z,79.60
2017-12-03T23:05:30.055Z,79.50
2017-12-03T23:07:58.423Z,79.10
2017-12-03T23:10:27.668Z,79.00
2017-12-03T23:12:55.194Z,79.00
2017-12-03T23:15:23.519Z,79.40
2017-12-03T23:17:51.087Z,79.40
2017-12-03T23:20:18.624Z,79.10
2017-12-03T23:22:46.191Z,79.00
2017-12-03T23:25:13.722Z,79.30
2017-12-03T23:27:41.283Z,79.10
2017-12-03T23:30:08.880Z,79.20
2017-12-03T23:32:36.415Z,78.60
2017-12-03T23:35:04.008Z,79.10
2017-12-03T23:37:31.562Z,79.20
2017-12-03T23:39:59.157Z,79.10
2017-12-03T23:42:27.477Z,79.00
2017-12-03T23:44:55.014Z,78.90
2017-12-03T23:47:22.584Z,78.80
2017-12-03T23:49:50.107Z,78.80
2017-12-03T23:52:18.431Z,79.00
2017-12-03T23:54:45.972Z,79.10
2017-12-03T23:57:13.504Z,79.20
2017-12-03T23:59:41.867Z,79.90
